createdAt,value
2022-10-26T00:07:01.216Z,58.90
2022-10-26T00:17:07.534Z,63.90
2022-10-26T00:27:13.794Z,59.70
2022-10-26T00:37:20.084Z,63.50
2022-10-26T00:47:35.379Z,49.30
2022-10-26T00:57:41.827Z,41.40
2022-10-26T01:07:48.805Z,38.60
2022-10-26T01:17:57.919Z,43.50
2022-10-26T01:28:12.800Z,48.20
2022-10-26T01:38:31.298Z,45.80
2022-10-26T01:48:38.430Z,45.50
2022-10-26T01:58:57.826Z,43.00
2022-10-26T02:09:09.324Z,44.60
2022-10-26T02:19:28.941Z,46.20
2022-10-26T02:29:36.407Z,39.50
2022-10-26T02:39:43.138Z,43.10
2022-10-26T02:49:49.383Z,42.40
2022-10-26T02:59:56.152Z,44.20
2022-10-26T03:10:02.448Z,44.10
2022-10-26T03:20:09.579Z,46.20
2022-10-26T03:30:15.850Z,44.50
2022-10-26T03:40:22.095Z,44.70
2022-10-26T03:50:28.351Z,41.40
2022-10-26T04:00:34.624Z,50.10
2022-10-26T04:10:40.916Z,48.70
2022-10-26T04:20:47.250Z,45.20
2022-10-26T04:30:53.519Z,45.10
2022-10-26T04:40:59.791Z,40.70
2022-10-26T04:51:06.036Z,39.90
2022-10-26T05:01:12.486Z,41.90
2022-10-26T05:11:18.867Z,39.30
2022-10-26T05:21:25.161Z,43.20
2022-10-26T05:31:31.484Z,48.30
2022-10-26T05:41:37.747Z,37.30
2022-10-26T05:51:44.007Z,47.10
2022-10-26T06:01:59.133Z,46.00
2022-10-26T06:12:06.023Z,65.30
2022-10-26T06:22:40.673Z,70.50
2022-10-26T06:32:47.227Z,46.05
2022-10-26T06:42:53.795Z,46.90
2022-10-26T06:53:24.829Z,42.90
2022-10-26T07:03:31.138Z,42.30
2022-10-26T07:13:37.425Z,35.80
2022-10-26T07:23:43.708Z,36.60
2022-10-26T07:33:49.978Z,34.10
2022-10-26T07:43:56.247Z,31.00
2022-10-26T07:54:02.562Z,23.80
2022-10-26T08:04:08.827Z,24.00
2022-10-26T08:14:15.217Z,22.50
2022-10-26T08:24:21.474Z,20.80
2022-10-26T08:34:27.748Z,21.60
2022-10-26T08:44:41.690Z,20.80
2022-10-26T08:54:53.712Z,19.20
2022-10-26T09:05:00.923Z,18.40
2022-10-26T09:15:07.138Z,17.90
2022-10-26T09:25:24.994Z,20.70
2022-10-26T09:35:42.722Z,19.30
2022-10-26T09:45:54.505Z,19.30
2022-10-26T09:56:20.992Z,14.40
2022-10-26T10:06:28.624Z,17.60
2022-10-26T10:16:34.874Z,12.20
2022-10-26T10:26:57.596Z,14.90
2022-10-26T10:37:03.909Z,16.80
2022-10-26T10:47:20.053Z,14.80
2022-10-26T10:57:41.895Z,11.40
2022-10-26T11:08:03.772Z,12.10
2022-10-26T11:18:15.676Z,8.40
2022-10-26T11:28:50.606Z,9.40
2022-10-26T11:39:16.115Z,8.50
2022-10-26T11:49:41.038Z,11.00
2022-10-26T11:59:51.930Z,10.40
2022-10-26T12:09:59.007Z,9.80
2022-10-26T12:20:11.967Z,11.30
2022-10-26T12:30:21.170Z,13.40
2022-10-26T12:40:42.934Z,10.40
2022-10-26T12:50:49.230Z,9.80
2022-10-26T13:01:01.343Z,7.80
2022-10-26T13:11:15.319Z,10.50
2022-10-26T13:21:22.921Z,10.90
2022-10-26T13:31:35.540Z,7.90
2022-10-26T13:41:44.862Z,11.70
2022-10-26T13:51:52.715Z,5.70
2022-10-26T14:02:23.785Z,8.30
2022-10-26T14:12:31.876Z,12.40
2022-10-26T14:22:38.160Z,9.00
2022-10-26T14:32:44.468Z,12.40
2022-10-26T14:42:53.105Z,10.90
2022-10-26T14:53:04.257Z,10.40
2022-10-26T15:03:17.269Z,16.50
2022-10-26T15:13:30.598Z,18.40
2022-10-26T15:23:39.600Z,15.10
2022-10-26T15:34:05.775Z,23.40
2022-10-26T15:44:17.287Z,33.50
2022-10-26T15:54:23.585Z,28.50
2022-10-26T16:04:28.828Z,32.75
2022-10-26T16:14:53.392Z,23.70
2022-10-26T16:25:01.347Z,59.60
2022-10-26T16:35:07.770Z,46.80
2022-10-26T16:45:15.202Z,38.70
2022-10-26T16:55:25.607Z,32.60
2022-10-26T17:05:31.898Z,37.40
2022-10-26T17:15:38.154Z,36.30
2022-10-26T17:25:45.182Z,45.80
2022-10-26T17:35:54.435Z,41.20
2022-10-26T17:46:01.955Z,32.20
2022-10-26T17:56:10.857Z,35.50
2022-10-26T18:06:18.438Z,33.90
2022-10-26T18:16:26.203Z,35.80
2022-10-26T18:26:32.831Z,33.80
2022-10-26T18:36:39.139Z,51.60
2022-10-26T18:46:48.941Z,50.80
2022-10-26T18:56:55.296Z,56.30
2022-10-26T19:07:03.339Z,46.30
2022-10-26T19:17:10.232Z,40.60
2022-10-26T19:37:27.428Z,37.60
2022-10-26T19:47:34.636Z,57.50
2022-10-26T19:57:41.942Z,66.30
2022-10-26T20:07:48.196Z,63.10
2022-10-26T20:17:54.481Z,57.80
2022-10-26T20:28:00.772Z,61.30
2022-10-26T20:38:08.378Z,62.10
2022-10-26T20:48:15.270Z,75.20
2022-10-26T20:58:50.391Z,71.10
2022-10-26T21:08:57.747Z,75.20
2022-10-26T21:19:06.113Z,72.50
2022-10-26T21:29:12.367Z,70.90
2022-10-26T21:39:18.655Z,70.10
2022-10-26T21:49:24.895Z,75.40
2022-10-26T21:59:31.204Z,66.70
2022-10-26T22:09:45.040Z,60.60
2022-10-26T22:20:03.734Z,46.80
2022-10-26T22:30:10.488Z,57.60
2022-10-26T22:40:16.751Z,52.40
2022-10-26T22:50:23.019Z,43.70
2022-10-26T23:00:29.291Z,45.50
2022-10-26T23:10:35.542Z,43.70
2022-10-26T23:20:42.253Z,46.80
2022-10-26T23:30:48.900Z,46.10
2022-10-26T23:40:57.867Z,41.00
2022-10-26T23:51:04.135Z,43.20
